Date,TemperatureHighF,TemperatureAvgF,TemperatureLowF,DewpointHighF,DewpointAvgF,DewpointLowF,HumidityHigh,HumidityAvg,HumidityLow,PressureMaxIn,PressureMinIn,WindSpeedMaxMPH,WindSpeedAvgMPH,GustSpeedMaxMPH,PrecipitationSumIn
2012-1-1,62.3,53.5,42.4,56.7,49.5,39.7,92,86,74,30.19,29.92,7,2,15,0.00
2012-1-2,61.1,48.9,37.6,56.8,32.5,19.8,87,55,33,30.03,29.90,13,7,21,0.00
2012-1-3,37.9,31.0,28.6,27.9,9.7,-99.9,86,52,34,30.14,29.94,17,-62,28,0.00
2012-1-6,-52.2,-57.8,-63.7,-99.9,-99.9,-99.9,0,0,100,30.06,30.02,16,8,20,0.00
2012-1-7,66.3,6.4,-59.1,53.3,-18.8,-99.9,91,44,48,30.06,29.97,10,4,13,0.00
2012-1-8,57.6,54.7,52.2,52.3,48.6,39.4,91,80,61,30.25,30.06,9,5,16,0.00
2012-1-9,52.6,49.8,45.8,49.3,45.0,35.6,94,84,58,30.23,30.04,8,4,14,0.00
2012-1-10,55.4,50.5,47.2,50.0,47.7,45.6,94,90,82,30.11,30.01,6,2,10,0.01
2012-1-11,60.3,55.4,48.5,58.2,52.5,46.3,94,90,85,30.01,29.57,10,5,16,0.71
2012-1-12,59.3,55.0,48.6,56.3,49.7,44.6,91,83,67,29.74,29.60,13,6,22,0.00
2012-1-13,63.7,43.7,36.3,57.1,23.5,-99.9,90,52,38,30.07,29.61,23,-42,43,0.00
2012-1-14,48.0,37.1,31.2,33.0,17.0,-99.9,80,55,38,30.26,30.07,9,-72,15,0.00
2012-1-15,47.4,41.3,34.2,32.1,27.4,25.1,76,58,45,30.58,30.15,14,7,23,0.00
2012-1-16,34.4,33.7,33.1,29.2,27.5,25.1,83,78,69,30.59,30.56,6,4,11,0.00
2012-1-26,62.4,59.6,57.5,59.7,57.1,54.6,92,91,90,29.98,29.88,8,4,17,0.02
2012-1-27,69.9,60.7,52.7,59.9,54.5,44.6,94,82,50,30.00,29.67,19,6,36,0.05
2012-1-28,59.7,51.7,43.9,52.8,45.1,38.5,91,79,63,30.14,30.00,6,2,11,0.00
2012-1-29,55.2,47.0,39.3,44.1,33.4,22.4,82,61,30,30.34,30.14,9,4,15,0.00
2012-1-30,43.9,-61.0,-90.0,31.8,-73.1,-99.9,64,12,50,30.45,30.29,9,-9,16,0.00
2012-1-31,-90.0,-85.3,-90.0,-99.9,-99.9,-99.9,0,0,100,30.46,30.33,13,4,20,0.00
2012-2-1,-90.0,-90.0,-90.0,-99.9,-99.9,-99.9,0,0,100,30.33,30.13,17,7,22,0.00
2012-2-2,-48.4,-78.4,-90.0,-99.9,-99.9,-99.9,0,0,100,30.27,30.02,20,6,26,0.09
2012-2-3,-90.0,-90.0,-90.0,-99.9,-99.9,-99.9,0,0,100,30.47,30.27,15,7,21,0.00
2012-2-4,-90.0,-90.0,-90.0,-99.9,-99.9,-99.9,0,0,100,30.40,30.16,9,4,11,0.00
2012-2-10,48.4,25.0,47.2,45.8,-26.2,-99.9,92,46,89,29.97,-32.77,5,-473,7,0.06
2012-2-11,52.5,45.1,29.7,47.1,37.6,12.4,93,77,41,29.96,29.67,20,7,31,0.02
2012-2-12,41.2,27.6,-90.0,20.5,1.6,-99.9,57,39,33,30.23,29.96,20,-69,36,0.00
2012-2-13,46.9,35.8,27.6,33.9,13.5,-99.9,75,51,38,30.31,30.18,8,-82,12,0.00
2012-2-14,54.0,46.7,39.1,47.0,39.3,32.1,89,76,46,30.20,30.08,8,2,8,0.00
2012-2-15,63.9,52.8,45.0,51.0,45.9,41.0,91,79,43,30.29,30.09,10,3,17,0.00
2012-2-16,61.0,52.9,45.1,59.3,50.1,42.6,94,90,82,30.29,29.97,10,4,18,0.72
2012-2-17,64.8,55.3,49.1,54.4,49.4,46.2,93,82,52,30.09,29.97,10,4,17,0.00
2012-2-18,58.3,53.1,46.7,52.0,49.0,44.8,93,86,78,30.11,29.95,8,3,12,0.05
2012-2-19,57.6,50.6,40.6,55.3,48.4,38.1,93,92,89,29.95,29.59,14,8,24,0.58
2012-2-20,52.0,43.0,36.8,37.9,33.8,29.4,92,72,44,30.33,29.75,16,9,26,0.00
2012-2-21,56.3,47.6,37.6,52.5,43.3,33.4,92,85,73,30.34,30.04,6,3,9,0.00
2012-2-22,66.0,56.2,50.4,55.0,52.1,47.8,92,87,66,30.04,29.67,9,4,16,0.00
2012-2-23,64.7,60.1,56.6,59.4,56.8,54.2,93,89,83,29.75,29.63,10,4,18,0.00
2012-2-24,67.5,61.4,58.9,64.0,58.4,48.7,94,90,68,29.77,29.65,15,6,21,0.48
2012-2-25,59.2,50.7,43.2,49.0,30.2,22.4,69,46,30,30.11,29.77,18,10,32,0.00
2012-3-1,66.5,65.7,63.9,62.5,61.7,59.8,88,87,85,29.88,29.84,7,4,11,0.01
2012-3-2,64.9,59.4,56.2,61.2,57.0,53.6,94,92,88,29.99,29.79,7,4,19,0.01
2012-3-3,68.1,60.6,57.1,63.2,58.1,55.1,94,92,85,29.79,29.67,10,4,23,0.57
2012-3-4,58.4,48.1,42.7,56.7,42.8,32.8,94,83,56,30.06,29.60,15,7,24,1.00
2012-3-5,62.7,50.8,40.3,46.3,32.7,24.1,74,52,29,30.50,29.99,22,8,34,0.00
2012-3-6,51.0,42.3,33.5,43.3,28.5,-99.9,84,62,51,30.69,30.50,10,-21,17,0.00
2012-3-7,59.7,51.4,41.3,55.1,46.8,36.8,91,84,78,30.67,30.48,8,4,12,0.00
2012-3-8,66.9,60.7,53.7,59.8,56.7,51.0,92,87,78,30.48,30.18,9,3,11,0.00
2012-3-9,67.3,57.8,45.7,62.6,54.1,42.3,94,88,70,30.28,30.10,10,4,17,0.01
2012-3-10,54.4,47.9,38.3,44.0,40.4,35.1,93,76,57,30.52,30.27,13,7,18,0.00
2012-3-11,57.7,49.8,39.5,50.8,38.6,28.7,92,66,45,30.56,30.45,9,4,14,0.00
2012-3-12,64.8,55.9,46.8,58.2,52.6,44.9,94,89,78,30.45,30.29,5,2,8,0.01
2012-3-13,66.8,61.3,57.4,60.1,57.2,54.5,90,87,79,30.29,30.16,7,2,14,0.00
2012-3-14,73.3,63.5,57.8,64.5,59.1,55.0,91,86,72,30.23,30.15,7,2,13,0.00
2012-3-15,67.4,62.4,57.9,61.4,58.9,55.6,93,89,81,30.29,30.21,11,3,13,0.01
2012-3-16,66.9,62.8,58.4,62.9,60.1,56.5,94,91,86,30.25,30.13,9,3,12,0.01
2012-3-17,77.0,64.8,60.0,63.2,60.4,58.0,93,86,60,30.23,30.14,7,2,9,0.01
2012-3-18,64.9,61.0,58.8,61.9,58.9,57.1,94,93,89,30.29,30.18,7,3,10,0.00
2012-3-19,69.4,63.5,58.9,64.2,60.6,57.2,94,90,83,30.22,30.12,6,2,14,0.01
2012-3-20,70.0,64.8,58.4,65.3,61.8,56.4,93,90,83,30.23,30.13,7,2,8,0.01
2012-3-21,72.2,66.0,61.6,67.1,63.0,59.6,94,90,82,30.30,30.19,8,2,10,0.01
2012-3-22,72.8,67.1,64.3,66.9,63.6,61.7,92,88,80,30.27,30.16,11,3,12,0.00
2012-3-23,72.6,67.0,62.4,67.3,63.7,60.7,94,89,82,30.16,29.99,7,2,11,0.01
2012-3-24,72.5,65.0,62.6,68.8,60.5,-99.9,94,90,87,30.01,29.78,16,-10,18,0.16
2012-3-25,71.9,63.9,56.3,64.4,59.2,53.4,94,85,62,29.78,29.61,12,3,20,0.35
2012-3-26,76.9,65.1,55.9,58.0,53.4,45.7,93,70,34,30.05,29.69,16,9,23,0.01
2012-3-27,59.6,54.0,46.1,45.8,39.7,30.5,76,59,40,30.32,30.06,9,5,23,0.00
2012-3-28,69.7,63.6,56.0,62.9,55.5,42.3,88,75,60,30.29,29.90,8,5,17,0.00
2012-3-29,86.2,70.9,62.5,63.9,59.8,52.5,88,71,32,29.92,29.80,13,6,21,0.00
2012-3-30,68.8,64.2,59.8,63.0,59.1,52.9,90,84,76,29.99,29.87,12,6,23,0.00
2012-3-31,71.2,67.2,65.0,65.6,63.0,60.1,91,87,78,29.89,29.70,9,3,17,0.11
2012-4-1,66.1,60.2,52.7,63.1,55.7,49.7,91,85,76,29.91,29.69,13,6,20,0.00
2012-4-2,79.0,67.4,60.6,64.3,57.8,46.2,90,73,40,29.92,29.62,14,8,25,0.00
2012-4-3,68.0,62.0,51.8,61.0,50.8,37.5,92,69,35,30.03,29.89,11,4,15,0.00
2012-4-4,73.2,67.9,64.6,66.0,63.4,61.0,91,86,76,29.89,29.62,7,4,15,0.00
2012-4-5,68.1,62.1,51.7,64.3,55.6,45.8,91,80,60,29.80,29.63,15,6,21,0.00
2012-4-6,57.6,50.1,46.4,47.5,44.9,41.4,91,83,57,30.04,29.71,12,8,23,0.34
2012-4-7,66.6,53.3,38.7,48.6,38.6,26.2,89,62,24,30.22,30.05,10,4,17,0.00
2012-4-8,74.7,62.6,53.0,60.3,51.0,33.8,87,68,24,30.15,29.93,11,5,18,0.00
2012-4-9,68.1,63.0,54.9,58.6,50.0,34.7,85,65,30,30.04,29.89,14,7,21,0.00
2012-4-10,75.8,64.9,54.8,59.2,51.0,32.5,82,64,21,29.97,29.79,11,6,23,0.00
2012-4-11,65.8,57.8,46.8,59.9,38.3,27.7,84,50,28,30.09,29.76,13,8,23,0.04
2012-4-12,63.8,51.5,37.7,44.5,34.7,28.6,75,55,28,30.19,30.10,11,6,19,0.00
2012-4-13,66.8,52.7,45.8,45.5,43.2,33.5,87,72,32,30.25,30.16,5,2,8,0.00
2012-4-14,70.7,67.2,64.1,60.0,55.7,47.1,84,68,43,30.36,30.23,10,5,17,0.00
2012-4-15,73.0,67.8,63.4,64.1,62.0,59.7,89,82,72,30.26,30.19,8,4,20,0.00
2012-4-16,73.9,68.4,62.7,65.8,62.4,59.4,90,82,68,30.23,30.13,8,4,19,0.00
2012-4-17,81.0,70.2,65.3,67.3,64.3,61.3,88,82,60,30.16,30.04,11,4,18,0.00
2012-4-18,74.2,68.5,65.1,67.5,64.4,62.2,91,87,72,30.11,29.98,10,3,14,0.00
2012-4-19,68.8,64.1,59.5,63.8,60.4,57.5,93,88,78,30.04,29.96,8,4,13,0.03
2012-4-20,68.4,64.3,59.5,64.2,60.1,55.8,92,86,77,30.00,29.85,8,4,13,0.00
2012-4-21,75.5,68.7,62.8,69.7,65.2,60.7,93,89,82,29.87,29.71,16,4,27,0.03
2012-4-22,69.3,63.9,54.4,66.0,61.0,51.1,92,90,86,29.71,29.35,15,8,23,0.32
2012-4-23,58.3,52.7,47.3,51.4,43.8,36.4,91,73,44,29.76,29.45,15,8,29,0.00
2012-4-24,66.0,56.5,46.0,42.5,35.0,24.2,77,49,23,29.83,29.71,14,8,27,0.00
2012-4-25,66.8,58.3,49.2,59.6,49.3,40.8,86,72,61,30.01,29.83,10,4,17,0.01
2012-4-26,83.0,69.7,64.1,65.3,63.1,59.8,87,80,49,29.95,29.74,14,6,28,0.00
2012-4-27,81.9,70.3,65.7,67.5,63.5,60.8,89,80,58,30.06,29.85,13,6,21,0.01
2012-4-28,70.0,66.4,63.6,65.3,62.8,61.0,93,88,82,30.13,30.02,9,4,14,0.58
2012-4-29,69.0,64.7,61.0,63.1,60.9,57.8,90,88,80,30.18,30.08,10,5,15,0.00
2012-4-30,71.4,67.2,62.8,67.0,62.7,59.4,90,86,77,30.25,30.16,9,5,15,0.00
2012-5-1,77.2,72.4,69.4,70.7,68.2,66.5,91,87,80,30.19,30.07,12,5,22,0.00
2012-5-2,81.1,73.1,68.2,70.8,67.9,65.2,91,84,67,30.15,30.05,9,4,16,0.00
2012-5-3,83.7,73.9,66.8,71.6,68.3,64.1,91,83,61,30.13,30.02,8,5,17,0.00
2012-5-4,84.5,74.0,68.4,71.3,67.6,64.7,89,81,59,30.06,29.91,8,4,13,0.00
2012-5-5,86.7,75.9,68.5,73.0,69.8,66.1,92,82,60,29.92,29.73,18,5,36,0.39
2012-5-6,78.3,71.1,66.3,69.6,66.3,61.7,93,85,69,29.99,29.78,12,7,21,0.01
2012-5-7,73.6,68.4,61.0,66.7,62.3,58.0,91,81,63,30.03,29.95,14,9,20,0.00
2012-5-8,77.3,72.4,69.2,66.2,62.7,59.0,82,72,63,30.00,29.89,11,7,17,0.00
2012-5-9,78.7,72.5,64.6,72.4,68.0,61.6,91,86,79,29.90,29.62,11,4,20,0.11
2012-5-10,76.8,67.2,58.2,61.1,53.7,45.2,91,66,33,29.93,29.65,10,7,21,0.00
2012-5-11,75.8,66.4,55.9,60.0,53.6,44.6,85,65,35,30.22,29.93,8,4,14,0.00
2012-5-12,75.1,68.7,60.1,62.6,56.6,49.9,90,67,42,30.34,30.21,8,4,14,0.00
2012-5-13,75.8,72.6,70.6,62.1,60.0,57.0,71,65,54,30.27,30.14,10,7,15,0.00
2012-5-14,75.9,72.8,70.9,68.9,65.7,60.2,90,79,67,30.14,29.94,17,10,26,0.05
2012-5-15,78.8,74.1,68.6,72.5,69.8,64.6,91,86,69,29.99,29.90,11,5,20,0.18
2012-5-16,79.9,73.9,70.8,72.3,69.9,67.4,91,88,77,29.97,29.88,8,3,16,0.05
2012-5-17,77.0,71.2,66.1,71.1,67.5,62.5,92,88,81,29.95,29.86,13,4,18,0.25
2012-5-18,70.1,65.4,58.1,64.8,60.6,50.0,92,85,72,30.01,29.92,12,8,17,0.05
2012-5-19,77.5,66.4,55.9,65.6,54.7,43.7,84,67,41,30.06,29.97,11,8,20,0.00
2012-5-20,72.4,66.3,54.6,66.0,58.7,48.3,86,77,61,30.06,29.99,9,5,15,0.00
2012-5-21,77.7,71.5,65.4,70.2,66.8,62.4,90,85,72,30.00,29.86,9,4,15,0.00
2012-5-22,79.9,72.8,67.2,72.0,68.2,63.1,92,86,66,29.89,29.80,8,3,20,0.05
2012-5-23,80.0,75.4,70.7,72.4,70.0,67.2,89,84,68,29.96,29.82,10,4,16,0.00
2012-5-24,78.9,75.9,72.7,73.7,71.7,69.9,91,87,80,30.03,29.93,10,5,14,0.00
2012-5-25,79.8,75.8,71.7,73.5,71.1,67.4,91,85,77,30.08,30.00,11,6,21,0.18
2012-5-26,81.0,75.0,69.9,72.6,69.7,66.5,90,84,71,30.06,30.00,15,9,24,0.07
2012-5-27,78.8,76.4,73.0,74.3,72.5,69.7,91,88,84,30.09,30.00,12,8,22,0.14
2012-5-28,82.8,78.3,75.3,75.8,73.7,71.8,89,86,78,30.08,30.01,10,6,16,0.00
2012-5-29,82.5,78.9,76.2,75.9,73.9,71.3,89,85,77,30.02,29.85,12,6,17,0.00
2012-5-30,77.4,73.9,68.6,73.6,70.5,66.5,94,89,79,29.84,29.49,21,10,32,1.83
2012-5-31,87.2,77.7,70.3,75.0,70.7,66.2,90,80,52,29.90,29.79,8,4,15,0.00
2012-6-1,77.0,76.8,76.6,73.2,72.9,72.6,88,88,87,29.90,29.89,4,4,12,0.00
2012-6-3,82.1,82.0,81.9,55.4,55.0,54.5,40,40,39,29.82,29.82,8,8,17,0.00
2012-6-4,78.6,75.2,72.2,70.1,69.0,67.5,88,81,69,29.67,29.63,9,6,15,0.00
2012-6-5,72.3,68.3,62.9,68.4,62.6,59.2,90,82,67,29.89,29.64,10,6,18,0.07
2012-6-6,73.8,66.3,59.3,63.2,59.3,55.9,89,79,59,29.97,29.87,12,6,20,0.03
2012-6-7,77.4,69.2,57.3,62.6,58.1,52.9,89,69,46,30.02,29.97,9,4,13,0.00
2012-6-8,81.9,73.1,62.6,68.2,63.6,58.7,87,73,56,30.02,29.95,8,3,14,0.00
2012-6-9,86.3,75.6,65.2,71.5,66.8,61.2,88,75,54,30.08,30.00,8,4,13,0.00
2012-6-10,83.5,77.0,67.9,71.5,68.9,64.5,89,77,66,30.16,30.06,7,3,12,0.00
2012-6-11,78.5,77.0,76.1,72.0,71.0,69.2,84,82,77,30.16,30.07,13,7,19,0.00
2012-6-12,80.0,75.8,73.7,73.3,71.4,70.4,91,86,79,30.07,29.87,14,7,22,1.12
2012-6-13,84.3,77.6,73.5,75.1,72.4,70.5,92,85,67,29.92,29.81,7,3,13,0.20
2012-6-14,78.1,72.3,63.4,71.7,64.8,59.2,89,78,69,30.10,29.92,12,6,18,0.00
2012-6-15,79.9,70.6,59.9,66.4,61.7,56.6,90,75,55,30.15,30.05,10,7,20,0.00
2012-6-16,80.5,69.8,58.3,66.0,59.7,54.8,89,72,48,30.18,30.10,10,7,17,0.00
2012-6-17,79.2,69.8,59.3,67.2,61.6,56.1,91,76,51,30.13,30.01,9,6,14,0.00
2012-6-18,79.8,73.2,63.5,68.4,65.1,60.5,91,77,61,30.11,30.03,9,4,15,0.00
2012-6-19,83.9,77.0,68.5,71.8,68.9,64.7,88,77,64,30.16,30.11,7,3,12,0.00
2012-6-20,84.2,78.5,72.1,74.6,71.7,68.0,88,80,66,30.16,30.06,7,3,13,0.00
2012-6-21,85.9,78.6,72.3,76.6,72.1,68.3,88,81,64,30.08,29.91,7,4,17,0.00
2012-6-22,85.3,78.8,72.2,75.7,71.3,67.8,87,78,68,29.94,29.83,8,5,16,0.00
2012-6-23,87.5,78.8,73.1,77.1,72.8,69.6,91,82,63,30.01,29.87,7,4,17,0.20
2012-6-24,83.7,78.6,73.0,78.0,74.6,70.4,92,87,82,29.99,29.91,10,3,13,0.00
2012-6-25,88.3,79.6,75.7,76.6,73.8,72.2,89,83,66,29.91,29.69,10,5,19,0.00
2012-6-26,77.7,72.6,67.1,73.2,62.2,55.3,90,71,50,29.85,29.68,13,6,20,0.05
2012-6-27,80.8,73.3,64.3,66.2,60.6,54.9,85,66,44,29.94,29.81,10,5,18,0.00
2012-6-28,89.1,77.6,65.4,74.1,67.1,59.5,88,72,40,30.00,29.89,7,4,18,0.00
2012-6-29,88.4,82.0,76.9,78.7,74.8,67.7,88,79,71,29.90,29.74,6,4,15,0.00
2012-6-30,91.9,83.2,77.5,81.1,77.6,74.3,90,84,65,29.88,29.78,7,3,12,0.00
2012-7-1,89.9,81.7,69.5,81.7,76.2,64.0,89,84,55,30.06,29.82,25,5,37,0.17
2012-7-2,92.4,82.5,72.6,78.0,71.6,67.4,89,71,46,29.99,29.90,10,4,18,0.00
2012-7-3,89.3,82.4,75.8,79.6,76.5,71.7,89,82,69,30.00,29.92,9,3,15,0.00
2012-7-4,92.9,83.7,79.6,79.9,77.1,73.0,88,81,54,29.98,29.89,6,4,16,0.00
2012-7-5,92.0,83.8,78.7,80.8,77.1,73.3,87,81,61,29.94,29.84,8,4,18,0.00
2012-7-6,88.9,83.7,78.4,81.3,78.3,74.9,90,84,77,29.95,29.87,7,3,14,0.00
2012-7-7,94.6,84.8,80.4,81.0,78.0,76.2,89,81,59,30.00,29.92,8,4,15,0.00
2012-7-8,95.1,84.7,80.9,80.8,77.8,75.6,87,80,57,29.97,29.85,8,5,17,0.00
2012-7-9,94.3,84.6,80.5,80.8,78.1,76.1,88,81,58,29.92,29.82,9,5,17,0.00
2012-7-10,87.3,78.8,73.2,80.4,73.9,69.8,91,85,74,30.01,29.88,8,3,22,1.19
2012-7-11,85.0,77.1,72.3,77.2,72.3,69.5,92,86,69,30.07,29.97,17,4,24,0.24
2012-7-12,82.6,77.9,73.2,76.2,73.6,70.1,91,87,80,30.13,30.05,6,3,11,0.00
2012-7-13,87.4,81.4,74.9,78.9,75.8,71.4,90,83,75,30.18,30.09,8,4,12,0.26
2012-7-14,87.5,83.0,76.5,78.3,75.8,72.3,88,79,71,30.21,30.13,10,5,15,0.00
2012-7-15,87.7,83.7,77.9,77.5,75.3,72.9,87,76,69,30.19,30.08,10,4,15,0.00
2012-7-16,87.7,81.2,75.7,78.1,74.7,70.6,88,81,67,30.09,29.92,10,4,20,0.00
2012-7-17,89.5,82.7,77.4,80.3,76.6,73.2,88,82,72,29.98,29.90,6,4,15,0.00
2012-7-18,88.0,81.9,77.4,79.4,76.3,73.2,89,83,75,30.02,29.93,8,4,17,0.00
2012-7-19,89.5,82.7,78.4,79.7,77.0,74.5,88,83,72,30.03,29.95,8,5,21,0.00
2012-7-20,87.7,83.0,78.9,79.1,76.9,74.9,88,82,71,29.99,29.90,9,6,21,0.00
2012-7-21,89.8,81.5,74.5,79.3,75.5,69.7,89,82,68,30.08,29.94,10,4,22,0.47
2012-7-22,91.6,83.8,79.7,81.5,77.8,73.4,88,83,66,30.15,30.06,7,3,18,0.00
2012-7-23,93.0,83.5,78.8,80.8,77.2,75.2,89,82,61,30.17,30.00,9,4,16,0.13
2012-7-24,96.5,82.7,75.9,82.2,76.1,70.9,89,81,50,30.03,29.76,20,4,35,0.08
2012-7-25,87.6,81.1,75.2,76.4,73.7,71.2,88,79,66,29.92,29.82,10,5,17,0.00
2012-7-26,88.1,84.4,80.3,82.0,79.2,75.1,87,85,81,29.92,29.80,8,5,18,0.00
2012-7-27,92.2,85.7,81.6,83.5,79.9,77.6,88,83,71,29.93,29.83,6,4,15,0.00
2012-7-28,89.3,83.1,75.0,81.0,77.2,68.8,89,83,70,29.98,29.90,13,4,24,0.02
2012-7-29,87.0,80.4,74.1,79.6,74.7,69.4,89,83,75,29.98,29.90,10,4,20,0.00
2012-7-30,83.7,80.0,76.7,75.9,74.1,71.8,87,82,75,29.99,29.92,15,4,21,0.00
2012-7-31,86.4,79.5,73.2,77.9,74.2,69.7,90,84,75,29.97,29.87,7,3,13,0.31
2012-8-1,83.5,78.1,71.1,76.8,73.3,68.3,92,85,74,29.92,29.83,15,3,20,1.56
2012-8-2,88.3,80.9,73.2,79.4,75.2,68.4,91,83,73,29.98,29.85,10,4,15,0.00
2012-8-3,87.5,81.7,73.4,79.4,75.3,69.0,89,81,61,30.08,29.94,10,5,17,0.00
2012-8-4,89.4,83.8,80.2,79.6,77.1,75.0,86,81,71,30.20,30.05,14,6,18,0.00
2012-8-5,89.4,84.3,81.8,79.1,77.3,76.0,86,80,70,30.22,30.11,12,7,17,0.00
2012-8-6,87.6,83.4,78.0,79.5,77.4,74.2,88,82,73,30.12,30.01,5,3,14,1.04
2012-8-7,83.6,79.0,74.6,77.3,74.7,71.1,91,87,77,30.04,29.97,8,3,12,0.68
2012-8-8,83.6,78.4,74.2,75.4,73.6,71.4,91,85,75,30.01,29.93,6,2,13,0.61
2012-8-9,85.5,80.2,74.1,77.9,75.0,71.0,91,84,74,29.99,29.87,10,4,13,0.00
2012-8-10,87.3,81.3,76.8,78.8,76.2,71.9,89,85,70,29.92,29.84,11,5,18,0.14
2012-8-11,82.9,79.9,74.8,77.9,75.5,71.3,90,86,76,29.95,29.88,15,6,26,0.32
2012-8-12,84.2,77.5,71.8,76.7,73.2,68.5,92,87,74,30.00,29.92,10,3,16,0.24
2012-8-13,85.7,80.4,74.5,78.5,75.8,71.9,92,86,76,30.02,29.93,10,3,14,0.01
2012-8-14,90.0,82.0,75.8,78.7,75.4,67.5,90,81,48,29.95,29.87,9,4,15,0.00
2012-8-15,89.9,82.8,78.5,79.9,77.0,74.0,88,83,64,29.92,29.83,9,4,19,0.09
2012-8-16,85.7,80.7,73.3,76.5,74.4,69.9,90,81,72,29.98,29.89,8,4,16,0.00
2012-8-17,87.4,81.3,74.6,78.3,75.4,71.1,89,82,70,29.97,29.83,10,4,17,0.00
2012-8-18,87.6,80.3,74.4,78.2,74.0,70.2,89,81,69,29.88,29.80,10,4,18,0.18
2012-8-19,84.9,78.0,73.7,78.5,73.7,69.6,91,87,77,29.87,29.82,10,4,19,0.87
2012-8-24,70.9,70.1,69.3,68.5,67.5,66.9,92,92,90,30.03,29.98,8,6,15,0.55
2012-8-25,77.2,70.9,68.0,70.1,67.3,65.9,93,89,78,30.08,29.98,8,4,16,0.00
2012-8-26,80.9,80.7,80.1,75.9,75.4,74.8,85,84,83,30.09,30.08,10,8,14,0.07
2012-8-27,86.2,81.2,75.6,79.4,76.3,72.6,91,85,76,30.10,30.00,11,4,16,0.00
2012-8-28,81.6,77.7,74.5,77.4,74.6,71.7,93,90,86,30.04,29.91,11,3,16,1.36
2012-8-29,83.2,76.6,73.9,77.2,73.3,71.4,92,90,82,29.99,29.87,8,3,11,1.01
2012-8-30,82.7,78.2,73.4,76.6,73.5,70.6,92,86,76,30.14,29.96,9,3,13,0.00
2012-8-31,86.4,80.5,72.0,77.8,74.8,69.2,92,83,71,30.21,30.09,7,3,13,0.00
2012-9-1,90.7,81.1,71.8,82.2,75.9,68.7,91,85,69,30.12,29.98,17,4,32,0.30
2012-9-2,89.1,81.8,75.7,81.8,76.1,72.5,90,83,69,30.02,29.93,7,3,15,0.00
2012-9-3,84.7,81.2,76.2,78.2,75.7,71.2,89,84,68,30.05,29.95,10,3,14,0.00
2012-9-4,86.7,81.8,77.0,77.0,74.9,71.5,89,80,68,30.03,29.94,7,3,17,0.00
2012-9-5,88.9,82.6,77.5,78.6,75.7,73.0,86,80,68,29.97,29.88,7,5,19,0.00
2012-9-6,87.8,82.3,74.0,79.8,76.6,70.9,91,83,73,29.95,29.87,8,4,18,0.43
2012-9-7,84.3,78.5,73.8,78.2,74.4,71.0,91,87,80,29.95,29.85,12,4,17,0.01
2012-9-8,87.5,80.7,73.6,79.7,75.9,70.4,91,86,73,29.86,29.74,14,4,26,0.38
2012-9-9,78.3,72.9,66.3,71.2,68.1,62.0,92,85,71,29.93,29.76,11,6,17,0.00
2012-9-10,79.8,70.5,61.0,62.0,58.6,55.0,89,68,43,30.13,29.93,11,5,18,0.00
2012-9-11,79.0,70.6,61.6,60.8,57.3,53.1,87,65,41,30.26,30.13,8,4,18,0.00
2012-9-12,78.0,72.0,61.8,67.8,63.0,56.6,85,74,59,30.31,30.24,9,6,16,0.00
2012-9-13,81.6,72.9,63.3,70.7,65.4,60.0,89,78,62,30.28,30.18,11,5,16,0.00
2012-9-14,81.1,74.2,68.0,73.3,69.2,65.3,92,84,73,30.19,30.09,9,5,14,0.00
2012-9-16,76.8,76.4,76.2,67.9,67.1,66.5,74,73,72,30.08,30.07,5,4,11,0.00
2012-9-17,81.0,78.4,74.5,74.3,71.5,67.1,86,79,71,30.08,29.97,15,6,20,0.00
2012-9-18,83.2,79.2,72.6,76.5,74.0,69.5,92,85,78,29.96,29.75,16,9,30,0.90
2012-9-19,77.8,71.0,63.3,73.6,66.7,59.2,91,86,81,30.06,29.81,9,5,14,0.00
2012-9-20,78.4,69.8,63.2,65.9,62.5,59.2,88,78,61,30.10,30.01,7,5,13,0.00
2012-9-21,77.5,71.4,64.1,65.6,63.7,61.1,91,77,64,30.07,30.00,8,4,11,0.00
2012-9-22,82.4,74.5,65.9,71.2,67.3,62.2,89,78,67,30.03,29.93,12,3,20,0.00
2012-9-23,79.3,73.4,65.2,70.5,65.8,60.2,91,78,59,30.08,29.93,9,5,15,0.00
2012-9-24,74.3,67.1,58.3,60.1,55.6,50.9,88,68,45,30.18,30.07,9,5,16,0.00
2012-9-25,75.0,67.9,59.0,65.5,57.8,52.7,86,71,50,30.24,30.16,7,3,12,0.00
2012-9-26,79.3,73.0,62.7,66.8,63.5,59.1,89,73,62,30.22,30.15,9,4,14,0.00
2012-9-27,81.6,73.6,64.4,69.7,66.4,61.1,90,79,58,30.19,30.08,8,4,11,0.00
2012-9-28,81.7,74.6,64.4,72.9,68.7,61.8,92,82,69,30.10,29.97,9,3,14,0.00
2012-9-29,78.6,72.7,68.7,71.5,68.7,65.6,91,88,78,29.99,29.85,6,3,11,0.23
2012-9-30,73.7,67.6,62.7,67.1,64.2,60.0,93,89,79,29.90,29.83,9,3,12,0.27
2012-10-1,77.6,71.7,66.3,75.0,68.8,63.7,93,91,87,29.88,29.82,12,6,19,0.30
2012-10-2,79.9,77.8,75.7,76.4,74.7,72.9,92,90,89,30.00,29.81,13,5,30,0.33
2012-10-3,83.0,78.9,76.5,77.7,75.0,73.0,90,88,83,30.16,30.00,7,3,13,0.01
2012-10-4,84.8,77.7,72.3,75.0,71.7,68.5,90,82,65,30.20,30.11,6,3,12,0.00
2012-10-5,82.7,73.7,66.8,68.4,64.5,56.9,91,75,42,30.15,30.01,7,4,11,0.00
2012-10-6,81.4,73.3,63.9,69.7,66.2,60.3,89,79,64,30.01,29.87,9,3,15,0.00
2012-10-7,79.8,72.0,58.6,73.2,67.7,55.7,91,86,78,30.06,29.91,13,5,22,0.00
2012-10-8,69.2,59.6,55.4,64.2,56.4,52.5,93,89,84,30.14,30.00,13,7,19,0.12
2012-10-9,61.4,56.5,53.7,57.5,54.1,52.0,94,92,87,30.08,30.01,12,7,20,0.00
2012-10-10,70.8,61.7,55.6,58.9,55.5,52.1,93,81,61,30.09,29.97,9,4,16,0.00
2012-10-11,68.1,60.8,52.2,56.8,52.6,48.4,88,76,54,30.25,30.08,10,5,17,0.00
2012-10-12,73.1,62.7,53.3,57.6,53.1,49.8,89,73,48,30.28,30.13,7,3,14,0.00
2012-10-13,69.6,61.7,52.1,56.5,52.6,48.0,87,73,54,30.41,30.28,9,6,17,0.00
2012-10-14,76.5,67.3,57.6,69.3,61.8,52.6,91,83,73,30.30,30.05,6,3,10,0.00
2012-10-15,78.6,70.5,61.9,71.6,66.3,59.3,93,87,77,30.04,29.72,6,3,14,0.34
2012-10-16,68.8,61.0,52.4,62.8,52.0,48.3,91,74,49,29.92,29.77,9,5,17,0.00
2012-10-17,67.2,60.9,54.7,56.2,53.1,50.7,87,76,57,30.00,29.90,4,3,9,0.00
2012-10-18,74.5,67.5,57.8,70.1,63.5,54.5,90,87,82,29.94,29.80,12,4,17,0.00
2012-10-19,76.8,71.7,65.1,71.0,67.0,56.6,92,85,72,29.80,29.71,6,2,12,0.06
2012-10-20,76.4,66.6,58.1,56.8,52.9,47.4,81,63,37,29.90,29.77,6,3,13,0.00
2012-10-21,70.3,60.3,50.4,53.4,49.4,45.4,84,69,46,30.12,29.89,9,5,13,0.00
2012-10-22,70.5,59.9,48.1,56.5,49.8,44.7,88,71,50,30.21,30.12,5,2,9,0.00
2012-10-23,74.0,64.6,53.4,62.5,55.1,49.7,88,73,48,30.19,30.11,7,4,12,0.00
2012-10-24,76.3,68.3,59.0,68.8,63.5,56.4,92,85,72,30.18,30.08,7,2,11,0.00
2012-10-25,75.8,69.5,63.5,69.3,65.5,61.0,92,87,79,30.14,30.05,9,4,13,0.01
2012-10-26,75.2,67.5,59.9,69.0,63.2,56.8,91,86,78,30.05,29.77,13,8,20,0.01
2012-10-27,70.0,65.8,61.8,65.3,62.8,60.1,94,90,85,29.77,29.46,17,12,29,0.14
2012-10-28,62.1,59.4,56.4,60.4,55.8,52.0,95,88,76,29.46,29.37,19,15,34,0.00
2012-10-29,58.0,52.9,49.4,53.0,46.5,39.5,92,79,66,29.46,29.36,19,13,33,0.02
2012-10-30,57.1,51.5,47.2,43.1,39.6,36.5,74,64,51,29.66,29.39,12,8,25,0.00
2012-10-31,59.7,51.9,45.1,45.4,41.0,38.4,83,67,48,29.79,29.65,12,6,19,0.00
2012-11-1,61.3,51.5,42.1,44.3,41.1,33.3,90,70,35,29.86,29.72,10,3,21,0.00
2012-11-2,67.5,54.0,41.8,49.6,41.9,36.4,83,66,37,29.96,29.79,8,4,17,0.00
2012-11-3,60.6,50.5,41.1,45.7,39.5,34.7,87,68,41,30.09,29.96,9,4,19,0.00
2012-11-4,76.1,59.3,46.8,64.9,51.5,40.8,91,76,56,30.08,29.88,11,5,19,0.14
2012-11-5,56.9,49.3,44.8,44.5,42.1,39.4,91,77,56,30.10,29.93,10,6,17,0.00
2012-11-6,45.9,43.6,39.8,43.2,40.4,36.5,92,88,82,30.08,29.85,11,7,18,0.42
2012-11-7,52.9,44.8,38.8,44.8,40.2,35.7,91,84,70,29.92,29.80,10,7,18,0.00
2012-11-8,58.8,44.4,36.7,37.0,34.8,30.5,90,73,34,30.06,29.92,9,6,18,0.00
2012-11-9,54.1,51.2,48.8,46.1,45.0,43.2,87,80,67,30.25,30.24,1,0,3,0.00
2012-11-16,56.8,49.4,44.2,46.4,43.6,41.0,89,81,67,30.32,30.23,7,4,12,0.00
2012-11-17,56.4,49.7,41.3,50.3,44.9,37.7,89,83,78,30.35,30.29,12,8,25,0.00
2012-11-18,56.8,54.7,52.3,53.6,51.7,48.2,94,90,86,30.30,30.15,15,11,30,0.75
2012-11-19,57.4,54.3,52.1,53.5,51.3,49.0,94,90,86,30.16,30.07,17,13,28,0.07
2012-11-20,56.4,52.7,50.3,51.7,49.4,48.0,92,89,84,30.10,30.02,12,8,20,0.00
2012-11-21,59.8,51.5,44.8,50.6,45.9,42.1,92,82,64,30.12,30.02,11,7,19,0.00
2012-11-22,60.5,50.0,41.0,49.3,44.0,38.0,90,80,65,30.15,30.07,13,8,24,0.00
2012-11-23,62.0,51.6,39.6,53.0,44.8,36.0,89,79,43,30.15,29.86,6,3,11,0.00
2012-11-24,53.6,47.5,37.1,49.2,35.8,25.4,87,65,41,30.11,29.85,11,6,19,0.00
2012-11-25,37.2,5.3,31.8,25.9,-80.3,-99.9,75,11,62,30.21,30.09,9,-28,15,0.00
2012-11-26,59.8,17.9,46.9,50.3,-50.1,-99.9,91,28,68,30.24,30.13,3,0,7,0.00
2012-11-27,59.3,52.1,44.6,51.9,46.3,41.0,93,81,56,30.21,30.09,5,1,8,0.09
2012-11-28,51.5,45.7,37.8,47.6,39.2,34.8,92,79,57,30.40,30.16,12,6,20,0.00
2012-11-29,54.5,26.6,34.5,40.3,-14.8,-99.9,91,50,44,30.50,30.39,3,-44,4,0.00
2012-11-30,57.3,44.0,30.4,44.6,34.1,-99.9,95,76,49,30.44,30.32,5,-28,7,0.00
2012-12-1,60.2,50.3,37.2,54.6,46.5,35.9,96,87,69,30.39,30.31,5,1,8,0.00
2012-12-2,61.7,55.5,48.4,57.5,52.5,46.2,93,90,84,30.40,30.27,4,1,7,0.00
2012-12-3,72.3,60.8,54.6,61.0,56.8,52.1,93,87,65,30.31,30.23,7,2,14,0.01
2012-12-4,68.3,58.9,51.6,62.6,56.0,49.4,94,90,81,30.34,30.21,6,1,12,0.01
2012-12-5,73.8,63.0,54.5,59.3,56.1,49.4,92,80,51,30.21,30.08,10,4,18,0.01
2012-12-6,54.5,50.4,47.3,48.8,44.8,42.8,88,81,74,30.26,30.16,10,7,18,0.03
2012-12-7,61.4,55.6,46.6,59.3,52.7,42.8,94,90,86,30.17,29.97,8,4,13,0.23
2012-12-8,65.5,59.1,55.7,59.5,56.6,53.9,94,91,81,30.08,29.95,7,2,13,0.01
2012-12-9,63.9,59.8,55.4,60.7,57.0,53.4,94,91,86,30.17,30.00,9,3,12,0.01
2012-12-10,66.4,62.6,59.5,64.3,60.2,57.2,94,92,87,30.00,29.78,9,4,15,0.20
2012-12-11,71.1,63.4,55.2,65.3,60.0,52.6,94,89,76,30.08,29.77,12,3,17,0.07
2012-12-12,55.0,48.9,42.7,52.4,46.5,40.8,93,91,90,30.25,30.06,11,7,21,0.44
2012-12-13,50.1,44.0,42.4,46.5,39.4,-99.9,96,89,86,30.31,30.08,13,-16,22,0.34
2012-12-14,58.4,42.7,38.5,47.5,26.1,-99.9,91,72,58,30.36,30.23,9,-111,17,0.00
2012-12-15,59.0,50.9,43.3,53.2,46.9,40.8,93,87,73,30.27,30.10,5,2,9,0.00
2012-12-16,60.4,57.9,53.6,58.4,55.5,50.4,94,92,89,30.10,29.91,5,1,9,0.05
2012-12-17,63.1,59.9,57.8,60.9,57.7,55.6,94,92,89,29.92,29.66,12,3,20,0.34
2012-12-18,66.1,58.4,46.5,56.7,51.6,39.5,91,79,59,29.93,29.68,14,6,23,0.00
2012-12-19,66.2,49.0,39.0,50.5,33.9,-99.9,92,67,38,30.13,29.92,6,-58,12,0.00
2012-12-20,63.9,55.0,40.0,61.0,51.5,38.4,95,88,80,30.16,29.56,17,4,23,0.08
2012-12-21,63.9,48.0,38.7,61.8,36.0,25.8,94,64,50,29.83,29.49,21,13,35,0.08
2012-12-22,48.1,40.8,35.0,31.7,28.5,26.2,73,62,44,30.10,29.83,15,8,27,0.00
2012-12-23,53.4,44.5,32.1,43.9,32.3,21.8,84,64,35,30.17,30.05,6,3,11,0.00
2012-12-24,59.9,52.6,44.8,51.5,44.6,35.7,88,74,61,30.07,29.92,5,2,11,0.01
2012-12-25,57.8,51.6,47.2,51.7,47.9,43.2,89,87,80,30.10,29.93,9,4,14,0.00
2012-12-26,58.2,52.5,47.6,54.7,48.1,39.6,93,85,69,30.03,29.47,19,10,31,1.41
2012-12-27,54.7,45.2,39.3,39.6,36.5,34.2,83,72,53,30.04,29.64,16,8,25,0.00
2012-12-28,41.3,-59.3,-90.0,34.6,-76.7,-99.9,87,14,77,30.17,30.00,5,-87,9,0.00
2012-12-29,44.8,-42.9,-90.0,41.2,-94.2,-99.9,87,3,81,30.00,29.63,6,0,9,0.82
2012-12-30,46.8,35.1,35.7,37.8,10.5,-99.9,79,55,44,30.39,29.91,14,-141,23,0.00
2012-12-31,53.8,38.3,29.3,46.1,16.2,-99.9,86,63,50,30.40,30.14,5,-139,11,0.00
2013-1-1,57.6,54.2,51.3,51.4,49.1,45.8,92,83,75,30.14,29.94,11,4,18,0.02